sensor_id;sensor_type;location;lat;lon;timestamp;temperature;humidity
57390;DHT22;43217;52.694;6.214;2023-04-07T00:01:31;7.30;99.90
57390;DHT22;43217;52.694;6.214;2023-04-07T00:03:57;7.30;99.90
57390;DHT22;43217;52.694;6.214;2023-04-07T00:06:23;7.30;99.90
57390;DHT22;43217;52.694;6.214;2023-04-07T00:08:48;7.40;99.90
57390;DHT22;43217;52.694;6.214;2023-04-07T00:11:14;7.40;99.90
57390;DHT22;43217;52.694;6.214;2023-04-07T00:13:40;7.40;99.90
57390;DHT22;43217;52.694;6.214;2023-04-07T00:16:05;7.40;99.90
57390;DHT22;43217;52.694;6.214;2023-04-07T00:18:31;7.40;99.90
57390;DHT22;43217;52.694;6.214;2023-04-07T00:20:57;7.40;99.90
57390;DHT22;43217;52.694;6.214;2023-04-07T00:23:22;7.40;99.90
57390;DHT22;43217;52.694;6.214;2023-04-07T00:25:48;7.40;99.90
57390;DHT22;43217;52.694;6.214;2023-04-07T00:28:14;7.40;99.90
57390;DHT22;43217;52.694;6.214;2023-04-07T00:30:40;7.40;99.90
57390;DHT22;43217;52.694;6.214;2023-04-07T00:33:05;7.40;99.90
57390;DHT22;43217;52.694;6.214;2023-04-07T00:35:31;7.40;99.90
57390;DHT22;43217;52.694;6.214;2023-04-07T00:37:56;7.40;99.90
57390;DHT22;43217;52.694;6.214;2023-04-07T00:40:22;7.40;99.90
57390;DHT22;43217;52.694;6.214;2023-04-07T00:42:48;7.40;99.90
57390;DHT22;43217;52.694;6.214;2023-04-07T00:45:14;7.50;99.90
57390;DHT22;43217;52.694;6.214;2023-04-07T00:47:40;7.40;99.90
57390;DHT22;43217;52.694;6.214;2023-04-07T00:50:06;7.50;99.90
57390;DHT22;43217;52.694;6.214;2023-04-07T00:52:32;7.50;99.90
57390;DHT22;43217;52.694;6.214;2023-04-07T00:55:01;7.50;99.90
57390;DHT22;43217;52.694;6.214;2023-04-07T00:57:26;7.50;99.90
57390;DHT22;43217;52.694;6.214;2023-04-07T00:59:52;7.50;99.90
57390;DHT22;43217;52.694;6.214;2023-04-07T01:02:41;7.50;99.90
57390;DHT22;43217;52.694;6.214;2023-04-07T01:14:02;7.50;99.90
57390;DHT22;43217;52.694;6.214;2023-04-07T01:16:41;7.50;99.90
57390;DHT22;43217;52.694;6.214;2023-04-07T01:21:52;7.50;99.90
57390;DHT22;43217;52.694;6.214;2023-04-07T01:24:26;7.50;99.90
57390;DHT22;43217;52.694;6.214;2023-04-07T01:26:58;7.50;99.90
57390;DHT22;43217;52.694;6.214;2023-04-07T01:29:36;7.60;99.90
57390;DHT22;43217;52.694;6.214;2023-04-07T01:32:09;7.50;99.90
57390;DHT22;43217;52.694;6.214;2023-04-07T01:34:36;7.50;99.90
57390;DHT22;43217;52.694;6.214;2023-04-07T01:37:03;7.50;99.90
57390;DHT22;43217;52.694;6.214;2023-04-07T01:39:29;7.50;99.90
57390;DHT22;43217;52.694;6.214;2023-04-07T01:41:56;7.60;99.90
57390;DHT22;43217;52.694;6.214;2023-04-07T01:44:23;7.60;99.90
57390;DHT22;43217;52.694;6.214;2023-04-07T01:46:50;7.60;99.90
57390;DHT22;43217;52.694;6.214;2023-04-07T01:49:16;7.60;99.90
57390;DHT22;43217;52.694;6.214;2023-04-07T01:51:43;7.60;99.90
57390;DHT22;43217;52.694;6.214;2023-04-07T01:54:15;7.60;99.90
57390;DHT22;43217;52.694;6.214;2023-04-07T01:56:42;7.60;99.90
57390;DHT22;43217;52.694;6.214;2023-04-07T01:59:08;7.70;99.90
57390;DHT22;43217;52.694;6.214;2023-04-07T02:01:34;7.70;99.90
57390;DHT22;43217;52.694;6.214;2023-04-07T02:07:00;7.70;99.90
57390;DHT22;43217;52.694;6.214;2023-04-07T02:09:29;7.70;99.90
57390;DHT22;43217;52.694;6.214;2023-04-07T02:11:59;7.80;99.90
57390;DHT22;43217;52.694;6.214;2023-04-07T02:14:26;7.80;99.90
57390;DHT22;43217;52.694;6.214;2023-04-07T02:16:52;7.80;99.90
57390;DHT22;43217;52.694;6.214;2023-04-07T02:19:19;7.80;99.90
57390;DHT22;43217;52.694;6.214;2023-04-07T02:21:46;7.80;99.90
57390;DHT22;43217;52.694;6.214;2023-04-07T02:24:13;7.80;99.90
57390;DHT22;43217;52.694;6.214;2023-04-07T02:26:38;7.90;99.90
57390;DHT22;43217;52.694;6.214;2023-04-07T02:29:04;7.90;99.90
57390;DHT22;43217;52.694;6.214;2023-04-07T02:31:30;7.90;99.90
57390;DHT22;43217;52.694;6.214;2023-04-07T02:33:56;7.90;99.90
57390;DHT22;43217;52.694;6.214;2023-04-07T02:36:22;8.00;99.90
57390;DHT22;43217;52.694;6.214;2023-04-07T02:38:48;8.00;99.90
57390;DHT22;43217;52.694;6.214;2023-04-07T02:41:13;8.00;99.90
57390;DHT22;43217;52.694;6.214;2023-04-07T02:43:39;8.00;99.90
57390;DHT22;43217;52.694;6.214;2023-04-07T02:46:05;8.00;99.90
57390;DHT22;43217;52.694;6.214;2023-04-07T02:48:30;8.00;99.90
57390;DHT22;43217;52.694;6.214;2023-04-07T02:50:57;8.00;99.90
57390;DHT22;43217;52.694;6.214;2023-04-07T02:53:22;8.00;99.90
57390;DHT22;43217;52.694;6.214;2023-04-07T02:55:48;8.10;99.90
57390;DHT22;43217;52.694;6.214;2023-04-07T02:58:14;8.10;99.90
57390;DHT22;43217;52.694;6.214;2023-04-07T03:00:39;8.10;99.90
57390;DHT22;43217;52.694;6.214;2023-04-07T03:03:05;8.10;99.90
57390;DHT22;43217;52.694;6.214;2023-04-07T03:05:31;8.10;99.90
57390;DHT22;43217;52.694;6.214;2023-04-07T03:07:56;8.10;99.90
57390;DHT22;43217;52.694;6.214;2023-04-07T03:10:22;8.10;99.90
57390;DHT22;43217;52.694;6.214;2023-04-07T03:12:48;8.10;99.90
57390;DHT22;43217;52.694;6.214;2023-04-07T03:15:14;8.10;99.90
57390;DHT22;43217;52.694;6.214;2023-04-07T03:17:39;8.10;99.90
57390;DHT22;43217;52.694;6.214;2023-04-07T03:20:06;8.10;99.90
57390;DHT22;43217;52.694;6.214;2023-04-07T03:22:32;8.10;99.90
57390;DHT22;43217;52.694;6.214;2023-04-07T03:24:58;8.20;99.90
57390;DHT22;43217;52.694;6.214;2023-04-07T03:27:23;8.20;99.90
57390;DHT22;43217;52.694;6.214;2023-04-07T03:29:49;8.20;99.90
57390;DHT22;43217;52.694;6.214;2023-04-07T03:32:17;8.20;99.90
57390;DHT22;43217;52.694;6.214;2023-04-07T03:34:43;8.20;99.90
57390;DHT22;43217;52.694;6.214;2023-04-07T03:37:09;8.20;99.90
57390;DHT22;43217;52.694;6.214;2023-04-07T03:39:34;8.20;99.90
57390;DHT22;43217;52.694;6.214;2023-04-07T03:42:02;8.20;99.90
57390;DHT22;43217;52.694;6.214;2023-04-07T03:44:28;8.20;99.90
57390;DHT22;43217;52.694;6.214;2023-04-07T03:46:54;8.20;99.90
57390;DHT22;43217;52.694;6.214;2023-04-07T03:49:19;8.20;99.90
57390;DHT22;43217;52.694;6.214;2023-04-07T03:51:45;8.20;99.90
57390;DHT22;43217;52.694;6.214;2023-04-07T03:54:11;8.20;99.90
57390;DHT22;43217;52.694;6.214;2023-04-07T03:56:39;8.20;99.90
57390;DHT22;43217;52.694;6.214;2023-04-07T03:59:08;8.20;99.90
57390;DHT22;43217;52.694;6.214;2023-04-07T04:01:34;8.20;99.90
57390;DHT22;43217;52.694;6.214;2023-04-07T04:04:01;8.20;99.90
57390;DHT22;43217;52.694;6.214;2023-04-07T04:06:26;8.20;99.90
57390;DHT22;43217;52.694;6.214;2023-04-07T04:08:52;8.20;99.90
57390;DHT22;43217;52.694;6.214;2023-04-07T04:11:17;8.20;99.90
57390;DHT22;43217;52.694;6.214;2023-04-07T04:13:43;8.20;99.90
57390;DHT22;43217;52.694;6.214;2023-04-07T04:16:09;8.20;99.90
57390;DHT22;43217;52.694;6.214;2023-04-07T04:18:34;8.20;99.90
57390;DHT22;43217;52.694;6.214;2023-04-07T04:21:00;8.20;99.90
57390;DHT22;43217;52.694;6.214;2023-04-07T04:23:26;8.20;99.90
57390;DHT22;43217;52.694;6.214;2023-04-07T04:25:51;8.20;99.90
57390;DHT22;43217;52.694;6.214;2023-04-07T04:28:17;8.30;99.90
57390;DHT22;43217;52.694;6.214;2023-04-07T04:30:42;8.20;99.90
57390;DHT22;43217;52.694;6.214;2023-04-07T04:33:08;8.20;99.90
57390;DHT22;43217;52.694;6.214;2023-04-07T04:35:34;8.20;99.90
57390;DHT22;43217;52.694;6.214;2023-04-07T04:37:59;8.30;99.90
57390;DHT22;43217;52.694;6.214;2023-04-07T04:40:25;8.30;99.90
57390;DHT22;43217;52.694;6.214;2023-04-07T04:42:51;8.20;99.90
57390;DHT22;43217;52.694;6.214;2023-04-07T04:45:16;8.30;99.90
57390;DHT22;43217;52.694;6.214;2023-04-07T04:47:42;8.30;99.90
57390;DHT22;43217;52.694;6.214;2023-04-07T04:50:08;8.30;99.90
57390;DHT22;43217;52.694;6.214;2023-04-07T04:52:34;8.30;99.90
57390;DHT22;43217;52.694;6.214;2023-04-07T04:55:01;8.30;99.90
57390;DHT22;43217;52.694;6.214;2023-04-07T04:57:27;8.30;99.90
57390;DHT22;43217;52.694;6.214;2023-04-07T04:59:52;8.30;99.90
57390;DHT22;43217;52.694;6.214;2023-04-07T05:02:18;8.30;99.90
57390;DHT22;43217;52.694;6.214;2023-04-07T05:04:43;8.30;99.90
57390;DHT22;43217;52.694;6.214;2023-04-07T05:07:09;8.30;99.90
57390;DHT22;43217;52.694;6.214;2023-04-07T05:09:35;8.30;99.90
57390;DHT22;43217;52.694;6.214;2023-04-07T05:12:00;8.30;99.90
57390;DHT22;43217;52.694;6.214;2023-04-07T05:14:27;8.30;99.90
57390;DHT22;43217;52.694;6.214;2023-04-07T05:16:52;8.30;99.90
57390;DHT22;43217;52.694;6.214;2023-04-07T05:19:19;8.30;99.90
57390;DHT22;43217;52.694;6.214;2023-04-07T05:21:45;8.30;99.90
57390;DHT22;43217;52.694;6.214;2023-04-07T05:24:14;8.30;99.90
57390;DHT22;43217;52.694;6.214;2023-04-07T05:26:39;8.30;99.90
57390;DHT22;43217;52.694;6.214;2023-04-07T05:29:05;8.30;99.90
57390;DHT22;43217;52.694;6.214;2023-04-07T05:31:32;8.40;99.90
57390;DHT22;43217;52.694;6.214;2023-04-07T05:34:00;8.40;99.90
57390;DHT22;43217;52.694;6.214;2023-04-07T05:36:25;8.40;99.90
57390;DHT22;43217;52.694;6.214;2023-04-07T05:38:51;8.40;99.90
57390;DHT22;43217;52.694;6.214;2023-04-07T05:41:17;8.40;99.90
57390;DHT22;43217;52.694;6.214;2023-04-07T05:43:43;8.40;99.90
57390;DHT22;43217;52.694;6.214;2023-04-07T05:46:09;8.40;99.90
57390;DHT22;43217;52.694;6.214;2023-04-07T05:48:38;8.40;99.90
57390;DHT22;43217;52.694;6.214;2023-04-07T05:51:04;8.40;99.90
57390;DHT22;43217;52.694;6.214;2023-04-07T05:53:30;8.40;99.90
57390;DHT22;43217;52.694;6.214;2023-04-07T05:55:56;8.40;99.90
57390;DHT22;43217;52.694;6.214;2023-04-07T05:58:21;8.40;99.90
57390;DHT22;43217;52.694;6.214;2023-04-07T06:00:47;8.40;99.90
57390;DHT22;43217;52.694;6.214;2023-04-07T06:03:12;8.40;99.90
57390;DHT22;43217;52.694;6.214;2023-04-07T06:05:38;8.40;99.90
57390;DHT22;43217;52.694;6.214;2023-04-07T06:08:08;8.40;99.90
57390;DHT22;43217;52.694;6.214;2023-04-07T06:10:34;8.40;99.90
57390;DHT22;43217;52.694;6.214;2023-04-07T06:12:59;8.40;99.90
57390;DHT22;43217;52.694;6.214;2023-04-07T06:15:25;8.40;99.90
57390;DHT22;43217;52.694;6.214;2023-04-07T06:17:51;8.30;99.90
57390;DHT22;43217;52.694;6.214;2023-04-07T06:20:21;8.30;99.90
57390;DHT22;43217;52.694;6.214;2023-04-07T06:22:47;8.30;99.90
57390;DHT22;43217;52.694;6.214;2023-04-07T06:25:13;8.20;99.90
57390;DHT22;43217;52.694;6.214;2023-04-07T06:27:38;8.20;99.90
57390;DHT22;43217;52.694;6.214;2023-04-07T06:30:04;8.20;99.90
57390;DHT22;43217;52.694;6.214;2023-04-07T06:32:30;8.10;99.90
57390;DHT22;43217;52.694;6.214;2023-04-07T06:34:56;8.10;99.90
57390;DHT22;43217;52.694;6.214;2023-04-07T06:37:22;8.10;99.90
57390;DHT22;43217;52.694;6.214;2023-04-07T06:39:49;8.10;99.90
57390;DHT22;43217;52.694;6.214;2023-04-07T06:42:15;8.10;99.90
57390;DHT22;43217;52.694;6.214;2023-04-07T06:44:40;8.00;99.90
57390;DHT22;43217;52.694;6.214;2023-04-07T06:47:06;8.00;99.90
57390;DHT22;43217;52.694;6.214;2023-04-07T06:49:33;8.00;99.90
57390;DHT22;43217;52.694;6.214;2023-04-07T06:51:59;8.00;99.90
57390;DHT22;43217;52.694;6.214;2023-04-07T06:54:27;8.00;99.90
57390;DHT22;43217;52.694;6.214;2023-04-07T06:56:52;8.00;99.90
57390;DHT22;43217;52.694;6.214;2023-04-07T06:59:18;8.00;99.90
57390;DHT22;43217;52.694;6.214;2023-04-07T07:01:44;8.00;99.90
57390;DHT22;43217;52.694;6.214;2023-04-07T07:04:10;8.00;99.90
57390;DHT22;43217;52.694;6.214;2023-04-07T07:06:36;8.00;99.90
57390;DHT22;43217;52.694;6.214;2023-04-07T07:09:02;8.10;99.90
57390;DHT22;43217;52.694;6.214;2023-04-07T07:11:27;8.10;99.90
57390;DHT22;43217;52.694;6.214;2023-04-07T07:13:53;8.10;99.90
57390;DHT22;43217;52.694;6.214;2023-04-07T07:16:19;8.10;99.90
57390;DHT22;43217;52.694;6.214;2023-04-07T07:18:45;8.10;99.90
57390;DHT22;43217;52.694;6.214;2023-04-07T07:21:10;8.10;99.90
57390;DHT22;43217;52.694;6.214;2023-04-07T07:23:36;8.10;99.90
57390;DHT22;43217;52.694;6.214;2023-04-07T07:26:03;8.20;99.90
57390;DHT22;43217;52.694;6.214;2023-04-07T07:28:29;8.20;99.90
57390;DHT22;43217;52.694;6.214;2023-04-07T07:30:54;8.10;99.90
57390;DHT22;43217;52.694;6.214;2023-04-07T07:33:20;8.10;99.90
57390;DHT22;43217;52.694;6.214;2023-04-07T07:35:47;8.10;99.90
57390;DHT22;43217;52.694;6.214;2023-04-07T07:38:13;8.20;99.90
57390;DHT22;43217;52.694;6.214;2023-04-07T07:40:38;8.20;99.90
57390;DHT22;43217;52.694;6.214;2023-04-07T07:43:04;8.30;99.90
57390;DHT22;43217;52.694;6.214;2023-04-07T07:45:31;8.20;99.90
57390;DHT22;43217;52.694;6.214;2023-04-07T07:47:56;8.20;99.90
57390;DHT22;43217;52.694;6.214;2023-04-07T07:50:22;8.30;99.90
57390;DHT22;43217;52.694;6.214;2023-04-07T07:52:48;8.30;99.90
57390;DHT22;43217;52.694;6.214;2023-04-07T07:55:13;8.30;99.90
57390;DHT22;43217;52.694;6.214;2023-04-07T07:57:39;8.30;99.90
57390;DHT22;43217;52.694;6.214;2023-04-07T08:00:05;8.30;99.90
57390;DHT22;43217;52.694;6.214;2023-04-07T08:02:31;8.30;99.90
57390;DHT22;43217;52.694;6.214;2023-04-07T08:04:58;8.30;99.90
57390;DHT22;43217;52.694;6.214;2023-04-07T08:07:25;8.30;99.90
57390;DHT22;43217;52.694;6.214;2023-04-07T08:09:51;8.30;99.90
57390;DHT22;43217;52.694;6.214;2023-04-07T08:12:17;8.30;99.90
57390;DHT22;43217;52.694;6.214;2023-04-07T08:14:43;8.40;99.90
57390;DHT22;43217;52.694;6.214;2023-04-07T08:17:09;8.40;99.90
57390;DHT22;43217;52.694;6.214;2023-04-07T08:19:35;8.40;99.90
57390;DHT22;43217;52.694;6.214;2023-04-07T08:22:01;8.40;99.90
57390;DHT22;43217;52.694;6.214;2023-04-07T08:24:28;8.40;99.90
57390;DHT22;43217;52.694;6.214;2023-04-07T08:26:53;8.40;99.90
57390;DHT22;43217;52.694;6.214;2023-04-07T08:29:19;8.50;99.90
57390;DHT22;43217;52.694;6.214;2023-04-07T08:31:45;8.50;99.90
57390;DHT22;43217;52.694;6.214;2023-04-07T08:34:10;8.60;99.90
57390;DHT22;43217;52.694;6.214;2023-04-07T08:36:38;8.70;99.90
57390;DHT22;43217;52.694;6.214;2023-04-07T08:39:03;8.70;99.90
57390;DHT22;43217;52.694;6.214;2023-04-07T08:41:37;8.80;99.90
57390;DHT22;43217;52.694;6.214;2023-04-07T08:44:10;8.90;99.90
57390;DHT22;43217;52.694;6.214;2023-04-07T08:46:38;8.90;99.90
57390;DHT22;43217;52.694;6.214;2023-04-07T08:49:08;9.00;99.90
57390;DHT22;43217;52.694;6.214;2023-04-07T08:51:36;9.10;99.90
57390;DHT22;43217;52.694;6.214;2023-04-07T08:54:11;9.10;99.90
57390;DHT22;43217;52.694;6.214;2023-04-07T08:56:38;9.20;99.90
57390;DHT22;43217;52.694;6.214;2023-04-07T08:59:09;9.10;99.90
57390;DHT22;43217;52.694;6.214;2023-04-07T09:01:36;9.20;99.90
57390;DHT22;43217;52.694;6.214;2023-04-07T09:04:03;9.20;99.90
57390;DHT22;43217;52.694;6.214;2023-04-07T09:06:29;9.20;99.90
57390;DHT22;43217;52.694;6.214;2023-04-07T09:08:57;9.20;99.90
57390;DHT22;43217;52.694;6.214;2023-04-07T09:11:25;9.20;99.90
57390;DHT22;43217;52.694;6.214;2023-04-07T09:13:51;9.20;99.90
57390;DHT22;43217;52.694;6.214;2023-04-07T09:16:17;9.20;99.90
57390;DHT22;43217;52.694;6.214;2023-04-07T09:18:44;9.20;99.90
57390;DHT22;43217;52.694;6.214;2023-04-07T09:21:09;9.20;99.90
57390;DHT22;43217;52.694;6.214;2023-04-07T09:23:37;9.20;99.90
57390;DHT22;43217;52.694;6.214;2023-04-07T09:28:52;9.10;99.90
57390;DHT22;43217;52.694;6.214;2023-04-07T09:31:18;9.10;99.90
57390;DHT22;43217;52.694;6.214;2023-04-07T09:33:46;9.00;99.90
57390;DHT22;43217;52.694;6.214;2023-04-07T09:36:12;8.90;99.90
57390;DHT22;43217;52.694;6.214;2023-04-07T09:38:39;8.90;99.90
57390;DHT22;43217;52.694;6.214;2023-04-07T09:41:13;8.90;99.90
57390;DHT22;43217;52.694;6.214;2023-04-07T09:43:41;8.90;99.90
57390;DHT22;43217;52.694;6.214;2023-04-07T09:46:09;8.90;99.90
57390;DHT22;43217;52.694;6.214;2023-04-07T09:48:35;8.90;99.90
57390;DHT22;43217;52.694;6.214;2023-04-07T09:51:05;9.00;99.90
57390;DHT22;43217;52.694;6.214;2023-04-07T09:53:48;9.00;99.90
57390;DHT22;43217;52.694;6.214;2023-04-07T09:56:18;9.00;99.90
57390;DHT22;43217;52.694;6.214;2023-04-07T09:58:47;9.10;99.90
57390;DHT22;43217;52.694;6.214;2023-04-07T10:01:14;9.10;99.90
57390;DHT22;43217;52.694;6.214;2023-04-07T10:03:41;9.20;99.90
57390;DHT22;43217;52.694;6.214;2023-04-07T10:06:07;9.20;99.90
57390;DHT22;43217;52.694;6.214;2023-04-07T10:08:36;9.30;99.90
57390;DHT22;43217;52.694;6.214;2023-04-07T10:11:02;9.30;99.90
57390;DHT22;43217;52.694;6.214;2023-04-07T10:13:29;9.30;99.90
57390;DHT22;43217;52.694;6.214;2023-04-07T10:15:56;9.30;99.90
57390;DHT22;43217;52.694;6.214;2023-04-07T10:18:27;9.30;99.90
57390;DHT22;43217;52.694;6.214;2023-04-07T10:20:55;9.30;99.90
57390;DHT22;43217;52.694;6.214;2023-04-07T10:23:25;9.40;99.90
57390;DHT22;43217;52.694;6.214;2023-04-07T10:25:54;9.40;99.90
57390;DHT22;43217;52.694;6.214;2023-04-07T10:28:22;9.40;99.90
57390;DHT22;43217;52.694;6.214;2023-04-07T10:30:48;9.50;99.90
57390;DHT22;43217;52.694;6.214;2023-04-07T10:33:14;9.50;99.90
57390;DHT22;43217;52.694;6.214;2023-04-07T10:36:03;9.60;99.90
57390;DHT22;43217;52.694;6.214;2023-04-07T10:38:30;9.70;99.90
57390;DHT22;43217;52.694;6.214;2023-04-07T10:40:56;9.70;99.90
57390;DHT22;43217;52.694;6.214;2023-04-07T10:43:39;9.80;99.90
57390;DHT22;43217;52.694;6.214;2023-04-07T10:46:06;9.90;99.90
57390;DHT22;43217;52.694;6.214;2023-04-07T10:48:31;9.90;99.90
57390;DHT22;43217;52.694;6.214;2023-04-07T10:51:11;9.90;99.90
57390;DHT22;43217;52.694;6.214;2023-04-07T10:54:15;9.90;99.90
57390;DHT22;43217;52.694;6.214;2023-04-07T10:57:07;9.90;99.90
57390;DHT22;43217;52.694;6.214;2023-04-07T10:59:35;9.90;99.90
57390;DHT22;43217;52.694;6.214;2023-04-07T11:04:43;10.00;99.90
57390;DHT22;43217;52.694;6.214;2023-04-07T11:07:11;10.10;99.90
57390;DHT22;43217;52.694;6.214;2023-04-07T11:09:37;10.10;99.90
57390;DHT22;43217;52.694;6.214;2023-04-07T11:12:03;10.10;99.90
57390;DHT22;43217;52.694;6.214;2023-04-07T11:14:32;10.10;99.90
57390;DHT22;43217;52.694;6.214;2023-04-07T11:16:59;10.10;99.90
57390;DHT22;43217;52.694;6.214;2023-04-07T11:19:27;10.10;99.90
57390;DHT22;43217;52.694;6.214;2023-04-07T11:22:13;10.20;99.90
57390;DHT22;43217;52.694;6.214;2023-04-07T11:24:40;10.30;99.90
57390;DHT22;43217;52.694;6.214;2023-04-07T11:27:14;10.30;99.90
57390;DHT22;43217;52.694;6.214;2023-04-07T11:29:41;10.40;99.90
57390;DHT22;43217;52.694;6.214;2023-04-07T11:32:06;10.40;99.90
57390;DHT22;43217;52.694;6.214;2023-04-07T11:34:34;10.50;99.90
57390;DHT22;43217;52.694;6.214;2023-04-07T11:37:22;10.50;99.90
57390;DHT22;43217;52.694;6.214;2023-04-07T11:39:56;10.40;99.90
57390;DHT22;43217;52.694;6.214;2023-04-07T11:42:39;10.40;99.90
57390;DHT22;43217;52.694;6.214;2023-04-07T11:45:14;10.40;99.90
57390;DHT22;43217;52.694;6.214;2023-04-07T11:47:40;10.40;99.90
57390;DHT22;43217;52.694;6.214;2023-04-07T11:50:06;10.40;99.90
57390;DHT22;43217;52.694;6.214;2023-04-07T11:52:48;10.30;99.90
57390;DHT22;43217;52.694;6.214;2023-04-07T11:55:21;10.40;99.90
57390;DHT22;43217;52.694;6.214;2023-04-07T11:57:49;10.30;99.90
57390;DHT22;43217;52.694;6.214;2023-04-07T12:00:18;10.30;99.90
57390;DHT22;43217;52.694;6.214;2023-04-07T12:02:44;10.30;99.90
57390;DHT22;43217;52.694;6.214;2023-04-07T12:05:10;10.30;99.90
57390;DHT22;43217;52.694;6.214;2023-04-07T12:07:37;10.40;99.90
57390;DHT22;43217;52.694;6.214;2023-04-07T12:10:32;10.40;99.90
57390;DHT22;43217;52.694;6.214;2023-04-07T12:12:59;10.50;99.90
57390;DHT22;43217;52.694;6.214;2023-04-07T12:15:26;10.40;99.90
57390;DHT22;43217;52.694;6.214;2023-04-07T12:17:52;10.40;99.90
57390;DHT22;43217;52.694;6.214;2023-04-07T12:20:19;10.40;99.90
57390;DHT22;43217;52.694;6.214;2023-04-07T12:22:45;10.30;99.90
57390;DHT22;43217;52.694;6.214;2023-04-07T12:25:12;10.40;99.90
57390;DHT22;43217;52.694;6.214;2023-04-07T12:27:38;10.40;99.90
57390;DHT22;43217;52.694;6.214;2023-04-07T12:30:04;10.50;99.90
57390;DHT22;43217;52.694;6.214;2023-04-07T12:32:36;10.50;99.90
57390;DHT22;43217;52.694;6.214;2023-04-07T12:35:02;10.60;99.90
57390;DHT22;43217;52.694;6.214;2023-04-07T12:37:28;10.70;99.90
57390;DHT22;43217;52.694;6.214;2023-04-07T12:39:53;10.70;99.90
57390;DHT22;43217;52.694;6.214;2023-04-07T12:42:19;10.80;99.90
57390;DHT22;43217;52.694;6.214;2023-04-07T12:44:45;10.90;99.90
57390;DHT22;43217;52.694;6.214;2023-04-07T12:47:11;11.00;99.90
57390;DHT22;43217;52.694;6.214;2023-04-07T12:49:36;11.10;99.90
57390;DHT22;43217;52.694;6.214;2023-04-07T12:52:02;11.20;99.90
57390;DHT22;43217;52.694;6.214;2023-04-07T12:54:28;11.30;99.90
57390;DHT22;43217;52.694;6.214;2023-04-07T12:56:54;11.40;99.90
57390;DHT22;43217;52.694;6.214;2023-04-07T12:59:21;11.30;99.90
57390;DHT22;43217;52.694;6.214;2023-04-07T13:01:48;11.30;99.90
57390;DHT22;43217;52.694;6.214;2023-04-07T13:04:14;11.20;99.90
57390;DHT22;43217;52.694;6.214;2023-04-07T13:06:40;11.20;99.90
57390;DHT22;43217;52.694;6.214;2023-04-07T13:09:05;11.30;99.90
57390;DHT22;43217;52.694;6.214;2023-04-07T13:11:31;11.20;99.90
57390;DHT22;43217;52.694;6.214;2023-04-07T13:13:56;11.20;99.90
57390;DHT22;43217;52.694;6.214;2023-04-07T13:16:22;11.10;99.90
57390;DHT22;43217;52.694;6.214;2023-04-07T13:18:48;11.00;99.90
57390;DHT22;43217;52.694;6.214;2023-04-07T13:21:13;11.00;99.90
57390;DHT22;43217;52.694;6.214;2023-04-07T13:23:39;10.90;99.90
57390;DHT22;43217;52.694;6.214;2023-04-07T13:26:05;10.90;99.90
57390;DHT22;43217;52.694;6.214;2023-04-07T13:28:31;10.90;99.90
57390;DHT22;43217;52.694;6.214;2023-04-07T13:30:58;10.90;99.90
57390;DHT22;43217;52.694;6.214;2023-04-07T13:33:23;10.90;99.90
57390;DHT22;43217;52.694;6.214;2023-04-07T13:35:49;10.90;99.90
57390;DHT22;43217;52.694;6.214;2023-04-07T13:38:15;10.90;99.90
57390;DHT22;43217;52.694;6.214;2023-04-07T13:40:40;10.90;99.90
57390;DHT22;43217;52.694;6.214;2023-04-07T13:43:07;10.90;99.90
57390;DHT22;43217;52.694;6.214;2023-04-07T13:45:32;10.80;99.90
57390;DHT22;43217;52.694;6.214;2023-04-07T13:47:59;10.90;99.90
57390;DHT22;43217;52.694;6.214;2023-04-07T13:50:25;10.80;99.90
57390;DHT22;43217;52.694;6.214;2023-04-07T13:52:51;10.80;99.90
57390;DHT22;43217;52.694;6.214;2023-04-07T13:55:17;10.80;99.90
57390;DHT22;43217;52.694;6.214;2023-04-07T13:57:44;10.80;99.90
57390;DHT22;43217;52.694;6.214;2023-04-07T14:00:10;10.70;99.90
57390;DHT22;43217;52.694;6.214;2023-04-07T14:02:36;10.70;99.90
57390;DHT22;43217;52.694;6.214;2023-04-07T14:05:02;10.60;99.90
57390;DHT22;43217;52.694;6.214;2023-04-07T14:07:27;10.60;99.90
57390;DHT22;43217;52.694;6.214;2023-04-07T14:09:53;10.60;99.90
57390;DHT22;43217;52.694;6.214;2023-04-07T14:12:18;10.60;99.90
57390;DHT22;43217;52.694;6.214;2023-04-07T14:14:46;10.70;99.90
57390;DHT22;43217;52.694;6.214;2023-04-07T14:17:14;10.70;99.90
57390;DHT22;43217;52.694;6.214;2023-04-07T14:19:40;10.70;99.90
57390;DHT22;43217;52.694;6.214;2023-04-07T14:22:06;10.80;99.90
57390;DHT22;43217;52.694;6.214;2023-04-07T14:24:32;10.90;99.90
57390;DHT22;43217;52.694;6.214;2023-04-07T14:26:57;10.90;99.90
57390;DHT22;43217;52.694;6.214;2023-04-07T14:29:23;10.90;99.90
57390;DHT22;43217;52.694;6.214;2023-04-07T14:31:48;11.00;99.90
57390;DHT22;43217;52.694;6.214;2023-04-07T14:34:15;10.90;99.90
57390;DHT22;43217;52.694;6.214;2023-04-07T14:36:52;11.00;99.90
57390;DHT22;43217;52.694;6.214;2023-04-07T14:39:17;11.00;99.90
57390;DHT22;43217;52.694;6.214;2023-04-07T14:41:44;11.00;99.90
57390;DHT22;43217;52.694;6.214;2023-04-07T14:44:12;11.00;99.90
57390;DHT22;43217;52.694;6.214;2023-04-07T14:46:38;11.00;99.90
57390;DHT22;43217;52.694;6.214;2023-04-07T14:49:03;11.00;99.90
57390;DHT22;43217;52.694;6.214;2023-04-07T14:51:29;11.00;99.90
57390;DHT22;43217;52.694;6.214;2023-04-07T14:53:54;11.10;99.90
57390;DHT22;43217;52.694;6.214;2023-04-07T14:56:22;11.10;99.90
57390;DHT22;43217;52.694;6.214;2023-04-07T14:58:49;11.10;99.90
57390;DHT22;43217;52.694;6.214;2023-04-07T15:01:15;11.10;99.90
57390;DHT22;43217;52.694;6.214;2023-04-07T15:03:41;11.10;99.90
57390;DHT22;43217;52.694;6.214;2023-04-07T15:06:11;11.10;99.90
57390;DHT22;43217;52.694;6.214;2023-04-07T15:08:38;11.20;99.90
57390;DHT22;43217;52.694;6.214;2023-04-07T15:11:07;11.20;99.90
57390;DHT22;43217;52.694;6.214;2023-04-07T15:13:33;11.20;99.90
57390;DHT22;43217;52.694;6.214;2023-04-07T15:16:08;11.20;99.90
57390;DHT22;43217;52.694;6.214;2023-04-07T15:18:34;11.20;99.90
57390;DHT22;43217;52.694;6.214;2023-04-07T15:21:00;11.20;99.90
57390;DHT22;43217;52.694;6.214;2023-04-07T15:23:26;11.20;99.90
57390;DHT22;43217;52.694;6.214;2023-04-07T15:25:52;11.30;99.90
57390;DHT22;43217;52.694;6.214;2023-04-07T15:28:21;11.30;99.90
57390;DHT22;43217;52.694;6.214;2023-04-07T15:30:46;11.30;99.90
57390;DHT22;43217;52.694;6.214;2023-04-07T15:33:12;11.30;99.90
57390;DHT22;43217;52.694;6.214;2023-04-07T15:35:40;11.30;99.90
57390;DHT22;43217;52.694;6.214;2023-04-07T15:38:06;11.20;99.90
57390;DHT22;43217;52.694;6.214;2023-04-07T15:40:35;11.20;99.90
57390;DHT22;43217;52.694;6.214;2023-04-07T15:43:01;11.30;99.90
57390;DHT22;43217;52.694;6.214;2023-04-07T15:45:27;11.30;99.90
57390;DHT22;43217;52.694;6.214;2023-04-07T15:47:53;11.30;99.90
57390;DHT22;43217;52.694;6.214;2023-04-07T15:50:18;11.30;99.90
57390;DHT22;43217;52.694;6.214;2023-04-07T15:52:44;11.40;99.90
57390;DHT22;43217;52.694;6.214;2023-04-07T15:55:10;11.40;99.90
57390;DHT22;43217;52.694;6.214;2023-04-07T15:57:35;11.30;99.90
57390;DHT22;43217;52.694;6.214;2023-04-07T16:00:02;11.30;99.90
57390;DHT22;43217;52.694;6.214;2023-04-07T16:02:28;11.30;99.90